Airfield :
LOGIN :

Register | Disclaimer

   EN    FR    IT 

 










Legend :    VFR   Marginal VFR   IFR   Intensive IFR   Very Intensive IFR
Visi :
Ceiling :
>= 8 km
>= 3000ft
5 to 8 km
1000 to 3000 ft
1500m to 5 km
500 to 1000 ft
800 to 1500m
200 to 500 ft
< 800m
< 200 ft
Symbols :   Thunderstorms  Fog  Heavy snow  Heavy precipitations  Wind > 20 kt
SIGMETs :     Misc.  Thunderstorms  Icing  Turbulence  Mountain Waves  Volcanic Ashes







- Airport Elevation : 776 ft
- IATA code : RMS


ETAR - Ramstein Air Base

CURRENT METAR :
  • 201856Z 00000KT 9999 BKN002 OVC009 01/00 A2948 RMK AO2A CIG 002V009 BKN V FEW SLP996 P0002 T00050004 $

EXPIRED METARs :
  • 201846Z 00000KT 9999 FEW002 BKN009 OVC015 00/00 A2948 RMK AO2A SLP997 $
  • 201836Z 00000KT 9999 BKN010 OVC015 00/00 A2948 RMK AO2A CIG 010V012 CIG 009 RWY08 SLP997 $
  • 201826Z 00000KT 9999 SCT011 BKN016 BKN026 OVC032 00/00 A2948 RMK AO2A CIG 016V026 BKN016 V SCT SLP997 $
  • 201816Z 01003KT 9999 SCT014 SCT019 BKN026 OVC032 00/00 A2947 RMK AO2A CIG 026V032 BKN V SCT SLP994 $
  • 201803Z 00000KT 9999 SCT012 BKN032 00/00 A2947 RMK SLP994 $
  • 201756Z 00000KT 9999 BKN012 BKN032 00/00 A2947 RMK AO2A SNE25RAB25E32 SLP994 P0004 60022 T00030002 10026 20002 57018 $
  • 201732Z 06003KT 9999 BKN014 00/00 A2947 RMK AO2A SNE25RAB25E32 SLP994 $
  • 201713Z 07003KT 3200 -SN BR OVC012 00/00 A2947 RMK AO2A CIG 005 RWY08 SLP994 $
  • 201700Z 06003KT 4000 -SN BR OVC012 00/00 A2948 RMK AO2A VIS 3000V4000 CIG 005 RWY08 SLP997 $
  • 201656Z 00000KT 3000 R26/1500 -SN BR OVC009 00/00 A2948 RMK AO2A CIG 006 RWY08 SLP997 P0000 T00020001 $
  • 201643Z 06003KT 3000 R26/1400 -SN BR FEW003 OVC009 00/00 A2948 RMK AO2A CIG 006 RWY08 SLP997 $
  • 201633Z 00000KT 3200 R26/1500 -SN BR SCT003 OVC009 00/00 A2949 RMK AO2A CIG 003V010 CIG 006 RWY08 SLP001 $
  • 201623Z 06003KT 3000 R26/1400 -SN BR BKN003 OVC010 00/00 A2949 RMK AO2A SLP001 $
  • 201604Z 06003KT 2200 -SN BR BKN003 OVC009 00/00 A2949 RMK AO2A CIG 003V011 BKN V SCT SLP001 $

TAF TAF ETAR
Valid from the 20 at 18:00 until the 22 at 00:00 UTC


201806Z 2018/2124 VRB06KT 9999 SCT012 BKN030 610307 QNH2946INS
TEMPO 2018/2024 3200 -SN BKN008
BECMG 2023/2024 31006KT 9999 BKN020 610208 QNH2954INS
BECMG 2104/2105 31010G15KT 9999 SCT030 QNH2971INS
BECMG 2120/2121 VRB06KT 9000 -RA BKN020 610208 QNH2985INS TX03/2112Z TNM01/2021Z
No reported NOTAMs for that airfield.
2 SIGMETs reported for the Langen FIR (EDGG) :
 
Severe turbulence
EDGG SIGMET 4 VALID 201816/202100 EDZF
EDGG LANGEN FIR SEV TURB FCST SW OF LINE N5045 E00800 - N5220 E00705 FL180/300 MOV ENE NC=
Severe turbulence
EDGG SIGMET 3 VALID 201805/202100 EDZF
EDGG LANGEN FIR SEV TURB FCST WI N5048 E00802 - N4755 E00852 - N4736 E00741 - N4900 E00809 - N4911 E00644 - N5025 E00620 - N5025 E00621 - N5048 E00802 FL180/300 MOV ENE NC=



MET'MAP, your aeronautical weather chart ! - Copyright ORBIFLY December 2007 - Disclaimer

ORBIFLY MET'MAP TEAM :

Programming & Development : Alexandra Zaïnal
Concept & Development : Baudouin d'Aumeries
Co-Development & Prog : Marc-Olivier Méhu
Technical & hardware support : Manuel Goepfert

Contact : metmap@orbifly.com




SOURCES & CREDITS :

   NOAA